Kitchener, Canada
Current Conditions -  °F | °C
As of 5:00 PM on Thursday 18 Dec 2014 (Local Time) from CYKF Reporting Station
Overcast Overcast  
Wind Chill: 16°   Ceiling: 1000
Heat Index: 27°   Visibility: 9mi
Dew Point: 23°   Wind: 12mph
Humidity: 86%   Direction: 310°NW
Pressure: 30.09"   Gusts: 18mph
Location:  43.45°N, 80.49°W
Report Text: CYKF 182200Z AUTO 31010G16KT 9SM OVC010 M03/M05 A3009 RMK SLP203
Loading
Personal Weather Stations






























Interactive Weather Map New forecast layout! Learn more

10-Day Weather Forecast

Advertisements
Track Severe Weather on mobile